createdAt,value
2022-08-14T00:00:58.617Z,25.90
2022-08-14T00:03:29.551Z,25.90
2022-08-14T00:05:59.923Z,25.80
2022-08-14T00:08:42.029Z,25.70
2022-08-14T00:11:08.200Z,25.80
2022-08-14T00:13:33.149Z,25.70
2022-08-14T00:15:58.988Z,25.60
2022-08-14T00:18:30.516Z,25.80
2022-08-14T00:21:11.782Z,25.60
2022-08-14T00:23:35.505Z,25.50
2022-08-14T00:26:06.435Z,25.40
2022-08-14T00:28:32.773Z,25.40
2022-08-14T00:31:00.176Z,25.30
2022-08-14T00:33:51.157Z,25.20
2022-08-14T00:36:34.960Z,25.20
2022-08-14T00:38:54.149Z,25.20
2022-08-14T00:41:17.850Z,25.20
2022-08-14T00:43:43.217Z,25.00
2022-08-14T00:46:32.714Z,25.00
2022-08-14T00:48:58.072Z,25.10
2022-08-14T00:51:22.783Z,24.90
2022-08-14T00:53:47.602Z,25.00
2022-08-14T00:56:15.476Z,25.00
2022-08-14T00:58:45.174Z,25.00
2022-08-14T01:01:14.646Z,25.00
2022-08-14T01:03:42.309Z,24.90
2022-08-14T01:06:09.715Z,24.80
2022-08-14T01:08:52.114Z,24.80
2022-08-14T01:11:40.903Z,24.70
2022-08-14T01:14:26.041Z,24.70
2022-08-14T01:16:53.057Z,24.70
2022-08-14T01:19:34.746Z,24.60
2022-08-14T01:22:01.073Z,24.60
2022-08-14T01:24:30.934Z,24.80
2022-08-14T01:27:00.053Z,24.60
2022-08-14T01:29:43.159Z,24.50
2022-08-14T01:32:10.693Z,24.50
2022-08-14T01:35:18.504Z,24.50
2022-08-14T01:37:21.071Z,24.30
2022-08-14T01:39:45.357Z,24.20
2022-08-14T01:42:09.520Z,24.20
2022-08-14T01:44:55.448Z,24.30
2022-08-14T01:47:21.626Z,24.40
2022-08-14T01:49:59.994Z,24.30
2022-08-14T01:52:34.291Z,24.30
2022-08-14T01:55:14.261Z,24.30
2022-08-14T01:58:01.678Z,24.00
2022-08-14T02:00:22.526Z,24.10
2022-08-14T02:02:52.607Z,23.90
2022-08-14T02:05:18.328Z,24.10
2022-08-14T02:07:55.945Z,24.00
2022-08-14T02:10:29.880Z,24.00
2022-08-14T02:12:56.817Z,24.00
2022-08-14T02:15:21.788Z,23.80
2022-08-14T02:17:45.647Z,23.90
2022-08-14T02:20:14.274Z,23.70
2022-08-14T02:22:47.214Z,23.80
2022-08-14T02:25:13.217Z,23.70
2022-08-14T02:28:25.439Z,23.70
2022-08-14T02:30:27.063Z,23.50
2022-08-14T02:32:55.053Z,23.50
2022-08-14T02:35:26.579Z,23.60
2022-08-14T02:37:56.907Z,23.40
2022-08-14T02:40:32.522Z,23.50
2022-08-14T02:42:58.173Z,23.40
2022-08-14T02:45:22.445Z,23.50
2022-08-14T02:47:47.557Z,23.60
2022-08-14T02:50:11.642Z,23.40
2022-08-14T02:52:57.444Z,23.40
2022-08-14T02:55:23.079Z,23.30
2022-08-14T02:57:51.917Z,23.20
2022-08-14T03:00:22.477Z,23.20
2022-08-14T03:02:56.073Z,23.20
2022-08-14T03:05:23.688Z,23.20
2022-08-14T03:07:47.364Z,23.00
2022-08-14T03:10:25.810Z,22.90
2022-08-14T03:12:53.377Z,23.10
2022-08-14T03:15:19.177Z,23.00
2022-08-14T03:17:57.471Z,23.00
2022-08-14T03:20:22.549Z,23.00
2022-08-14T03:22:47.007Z,22.80
2022-08-14T03:25:14.833Z,22.80
2022-08-14T03:27:48.188Z,22.80
2022-08-14T03:30:23.590Z,22.80
2022-08-14T03:32:47.305Z,22.70
2022-08-14T03:35:11.934Z,22.70
2022-08-14T03:39:14.560Z,22.70
2022-08-14T03:40:40.849Z,22.80
2022-08-14T03:43:05.788Z,22.70
2022-08-14T03:45:34.941Z,22.70
2022-08-14T03:48:01.904Z,22.60
2022-08-14T03:50:27.967Z,22.70
2022-08-14T03:52:55.796Z,22.70
2022-08-14T03:55:21.229Z,22.60
2022-08-14T03:57:45.493Z,22.70
2022-08-14T04:00:40.377Z,22.50
2022-08-14T04:02:58.408Z,22.70
2022-08-14T04:05:22.231Z,22.60
2022-08-14T04:08:00.143Z,22.60
2022-08-14T04:10:33.081Z,22.40
2022-08-14T04:13:00.051Z,22.40
2022-08-14T04:15:28.029Z,22.40
2022-08-14T04:17:51.657Z,22.40
2022-08-14T04:20:25.537Z,22.40
2022-08-14T04:22:50.549Z,22.30
2022-08-14T04:25:19.764Z,22.20
2022-08-14T04:27:48.737Z,22.40
2022-08-14T04:30:29.674Z,22.30
2022-08-14T04:33:10.977Z,22.50
2022-08-14T04:35:55.354Z,22.30
2022-08-14T04:38:39.791Z,22.30
2022-08-14T04:41:21.159Z,22.30
2022-08-14T04:43:45.542Z,22.40
2022-08-14T04:46:54.799Z,22.30
2022-08-14T04:49:00.118Z,22.50
2022-08-14T04:51:25.937Z,22.50
2022-08-14T04:53:51.205Z,22.40
2022-08-14T04:56:31.366Z,22.40
2022-08-14T04:59:09.673Z,22.50
2022-08-14T05:01:40.008Z,22.50
2022-08-14T05:04:04.965Z,22.50
2022-08-14T05:06:35.181Z,22.40
2022-08-14T05:09:02.379Z,22.50
2022-08-14T05:11:25.921Z,22.60
2022-08-14T05:16:33.747Z,22.70
2022-08-14T05:19:26.646Z,22.70
2022-08-14T05:21:59.439Z,22.80
2022-08-14T05:24:25.223Z,22.90
2022-08-14T05:26:48.887Z,23.10
2022-08-14T05:29:12.561Z,23.20
2022-08-14T05:31:40.519Z,23.50
2022-08-14T05:34:04.323Z,23.70
2022-08-14T05:36:28.867Z,24.00
2022-08-14T05:38:55.497Z,24.20
2022-08-14T05:41:21.870Z,24.20
2022-08-14T05:43:47.828Z,24.50
2022-08-14T05:46:18.475Z,24.80
2022-08-14T05:48:45.331Z,24.90
2022-08-14T05:51:09.161Z,25.00
2022-08-14T05:53:34.006Z,25.00
2022-08-14T05:56:00.163Z,25.10
2022-08-14T05:58:33.814Z,25.20
2022-08-14T06:01:06.044Z,25.20
2022-08-14T06:03:29.661Z,25.20
2022-08-14T06:05:56.713Z,25.30
2022-08-14T06:08:36.600Z,25.20
2022-08-14T06:11:09.010Z,25.20
2022-08-14T06:13:45.701Z,25.50
2022-08-14T06:16:10.439Z,25.60
2022-08-14T06:18:35.692Z,25.60
2022-08-14T06:20:59.406Z,25.70
2022-08-14T06:23:23.253Z,25.80
2022-08-14T06:25:52.775Z,25.90
2022-08-14T06:28:28.112Z,25.70
2022-08-14T06:30:53.037Z,25.90
2022-08-14T06:33:18.414Z,26.00
2022-08-14T06:35:42.207Z,26.00
2022-08-14T06:38:06.865Z,26.10
2022-08-14T06:40:34.563Z,26.30
2022-08-14T06:43:03.387Z,26.40
2022-08-14T06:45:30.287Z,26.50
2022-08-14T06:47:54.654Z,26.40
2022-08-14T06:50:21.279Z,26.20
2022-08-14T06:52:52.081Z,26.30
2022-08-14T06:55:21.655Z,26.60
2022-08-14T06:57:51.891Z,26.60
2022-08-14T07:00:26.887Z,27.00
2022-08-14T07:03:12.239Z,27.10
2022-08-14T07:05:57.975Z,26.80
2022-08-14T07:08:26.428Z,26.70
2022-08-14T07:10:57.084Z,26.50
2022-08-14T07:13:24.484Z,26.70
2022-08-14T07:15:50.836Z,27.00
2022-08-14T07:18:23.996Z,26.90
2022-08-14T07:20:47.557Z,26.70
2022-08-14T07:23:20.551Z,26.80
2022-08-14T07:25:47.254Z,27.00
2022-08-14T07:28:20.480Z,27.50
2022-08-14T07:30:51.480Z,27.40
2022-08-14T07:33:15.695Z,27.30
2022-08-14T07:35:57.835Z,27.30
2022-08-14T07:38:24.941Z,27.50
2022-08-14T07:40:53.035Z,27.40
2022-08-14T07:43:23.202Z,27.40
2022-08-14T07:45:50.860Z,27.60
2022-08-14T07:48:17.573Z,27.70
2022-08-14T07:50:45.405Z,27.80
2022-08-14T07:53:09.231Z,27.70
2022-08-14T07:55:33.517Z,27.90
2022-08-14T07:57:58.810Z,28.10
2022-08-14T08:00:30.910Z,28.30
2022-08-14T08:02:57.046Z,28.00
2022-08-14T08:05:27.942Z,28.10
2022-08-14T08:07:55.056Z,28.00
2022-08-14T08:10:57.111Z,28.10
2022-08-14T08:13:24.095Z,28.20
2022-08-14T08:15:50.598Z,28.30
2022-08-14T08:18:20.454Z,28.40
2022-08-14T08:20:54.241Z,28.60
2022-08-14T08:23:30.986Z,28.80
2022-08-14T08:26:03.930Z,28.40
2022-08-14T08:28:29.207Z,28.50
2022-08-14T08:30:56.464Z,28.60
2022-08-14T08:33:21.663Z,28.90
2022-08-14T08:35:50.708Z,29.00
2022-08-14T08:39:14.946Z,29.00
2022-08-14T08:41:04.056Z,28.90
2022-08-14T08:43:30.295Z,29.00
2022-08-14T08:46:00.408Z,28.90
2022-08-14T08:48:31.831Z,29.00
2022-08-14T08:51:05.069Z,29.00
2022-08-14T08:53:33.498Z,29.20
2022-08-14T08:55:57.749Z,29.10
2022-08-14T08:58:25.004Z,29.20
2022-08-14T09:00:54.248Z,29.10
2022-08-14T09:03:24.606Z,29.20
2022-08-14T09:05:54.297Z,29.40
2022-08-14T09:08:30.531Z,29.30
2022-08-14T09:10:57.883Z,29.30
2022-08-14T09:13:25.566Z,29.50
2022-08-14T09:15:50.785Z,29.50
2022-08-14T09:18:18.534Z,29.50
2022-08-14T09:20:49.377Z,29.30
2022-08-14T09:23:16.839Z,29.40
2022-08-14T09:26:00.290Z,29.10
2022-08-14T09:28:26.946Z,29.60
2022-08-14T09:30:55.885Z,29.60
2022-08-14T09:33:56.403Z,29.60
2022-08-14T09:36:48.123Z,29.70
2022-08-14T09:39:26.146Z,29.90
2022-08-14T09:42:20.658Z,30.10
2022-08-14T09:45:10.665Z,30.10
2022-08-14T09:47:49.169Z,30.10
2022-08-14T09:50:27.870Z,30.20
2022-08-14T09:52:57.716Z,30.20
2022-08-14T09:55:24.011Z,30.40
2022-08-14T09:57:49.102Z,30.40
2022-08-14T10:00:30.343Z,30.40
2022-08-14T10:02:58.440Z,30.50
2022-08-14T10:05:34.491Z,30.40
2022-08-14T10:08:03.082Z,30.30
2022-08-14T10:10:41.755Z,30.50
2022-08-14T10:13:08.835Z,30.60
2022-08-14T10:15:40.047Z,30.70
2022-08-14T10:18:17.408Z,30.60
2022-08-14T10:20:48.252Z,30.60
2022-08-14T10:23:17.840Z,30.80
2022-08-14T10:25:44.699Z,30.80
2022-08-14T10:28:09.541Z,30.90
2022-08-14T10:30:54.685Z,30.90
2022-08-14T10:33:30.998Z,30.80
2022-08-14T10:35:54.714Z,30.90
2022-08-14T10:38:29.605Z,30.90
2022-08-14T10:40:59.607Z,31.00
2022-08-14T10:43:26.812Z,31.20
2022-08-14T10:46:21.836Z,31.20
2022-08-14T10:48:58.971Z,31.20
2022-08-14T10:51:27.217Z,31.10
2022-08-14T10:53:57.032Z,31.10
2022-08-14T10:56:35.004Z,31.20
2022-08-14T10:59:03.526Z,31.30
2022-08-14T11:01:38.488Z,31.10
2022-08-14T11:04:08.520Z,31.30
2022-08-14T11:06:33.442Z,31.40
2022-08-14T11:08:58.048Z,31.30
2022-08-14T11:11:23.021Z,31.00
2022-08-14T11:13:47.488Z,31.20
2022-08-14T11:16:11.862Z,31.30
2022-08-14T11:18:40.332Z,31.50
2022-08-14T11:21:06.979Z,31.60
2022-08-14T11:23:37.778Z,31.40
2022-08-14T11:26:03.718Z,31.70
2022-08-14T11:28:47.893Z,31.50
2022-08-14T11:31:15.020Z,31.60
2022-08-14T11:33:41.676Z,31.80
2022-08-14T11:36:17.143Z,31.90
2022-08-14T11:38:45.295Z,31.90
2022-08-14T11:41:10.260Z,31.80
2022-08-14T11:43:41.734Z,31.90
2022-08-14T11:46:06.571Z,32.10
2022-08-14T11:49:03.374Z,32.20
2022-08-14T11:51:30.363Z,32.30
2022-08-14T11:53:57.242Z,32.20
2022-08-14T11:56:25.710Z,32.10
2022-08-14T11:58:54.973Z,31.90
2022-08-14T12:01:20.284Z,32.00
2022-08-14T12:03:52.099Z,32.20
2022-08-14T12:06:28.562Z,32.50
2022-08-14T12:09:03.168Z,32.40
2022-08-14T12:11:26.730Z,32.40
2022-08-14T12:13:56.125Z,32.40
2022-08-14T12:16:22.809Z,32.40
2022-08-14T12:18:50.922Z,32.40
2022-08-14T12:21:19.884Z,32.50
2022-08-14T12:23:43.913Z,32.70
2022-08-14T12:26:31.944Z,32.70
2022-08-14T12:29:08.022Z,32.80
2022-08-14T12:31:41.925Z,32.70
2022-08-14T12:34:13.557Z,32.50
2022-08-14T12:36:43.934Z,32.10
2022-08-14T12:39:20.958Z,32.00
2022-08-14T12:41:57.261Z,31.80
2022-08-14T12:44:32.139Z,31.70
2022-08-14T12:47:06.416Z,31.60
2022-08-14T12:49:31.577Z,32.20
2022-08-14T12:51:59.511Z,31.80
2022-08-14T12:54:28.596Z,31.80
2022-08-14T12:56:52.776Z,31.60
2022-08-14T12:59:18.271Z,32.00
2022-08-14T13:02:01.875Z,32.40
2022-08-14T13:04:29.558Z,32.10
2022-08-14T13:06:54.664Z,32.00
2022-08-14T13:09:20.084Z,32.00
2022-08-14T13:11:46.989Z,32.10
2022-08-14T13:14:17.455Z,32.10
2022-08-14T13:16:42.759Z,31.90
2022-08-14T13:19:11.149Z,32.00
2022-08-14T13:22:05.668Z,32.20
2022-08-14T13:24:27.572Z,32.70
2022-08-14T13:26:56.071Z,32.70
2022-08-14T13:29:21.766Z,32.40
2022-08-14T13:31:47.197Z,32.30
2022-08-14T13:34:14.653Z,31.90
2022-08-14T13:36:54.693Z,32.20
2022-08-14T13:39:26.393Z,32.40
2022-08-14T13:41:55.593Z,32.00
2022-08-14T13:44:21.934Z,32.30
2022-08-14T13:46:48.182Z,32.40
2022-08-14T13:49:14.823Z,32.20
2022-08-14T13:51:43.328Z,32.20
2022-08-14T13:54:11.056Z,32.40
2022-08-14T13:56:40.408Z,32.60
2022-08-14T13:59:04.413Z,32.50
2022-08-14T14:01:29.678Z,32.50
2022-08-14T14:03:57.476Z,32.60
2022-08-14T14:06:25.229Z,32.70
2022-08-14T14:08:51.031Z,32.90
2022-08-14T14:11:16.594Z,33.00
2022-08-14T14:13:45.236Z,32.60
2022-08-14T14:16:11.791Z,32.80
2022-08-14T14:18:42.419Z,32.90
2022-08-14T14:21:06.791Z,33.00
2022-08-14T14:23:34.527Z,33.00
2022-08-14T14:25:58.893Z,33.10
2022-08-14T14:28:24.315Z,33.10
2022-08-14T14:30:53.034Z,32.90
2022-08-14T14:33:44.829Z,33.10
2022-08-14T14:36:02.858Z,33.00
2022-08-14T14:38:32.748Z,32.90
2022-08-14T14:41:00.788Z,33.00
2022-08-14T14:43:27.366Z,32.90
2022-08-14T14:45:56.309Z,33.00
2022-08-14T14:48:21.985Z,33.10
2022-08-14T14:50:53.086Z,33.30
2022-08-14T14:53:16.819Z,33.20
2022-08-14T14:55:59.569Z,33.10
2022-08-14T14:58:26.216Z,33.10
2022-08-14T15:00:57.269Z,33.10
2022-08-14T15:03:20.976Z,33.00
2022-08-14T15:05:45.082Z,32.90
2022-08-14T15:08:09.196Z,33.00
2022-08-14T15:10:40.798Z,33.20
2022-08-14T15:13:10.513Z,33.20
2022-08-14T15:15:36.884Z,33.20
2022-08-14T15:18:02.907Z,33.20
2022-08-14T15:20:31.461Z,33.30
2022-08-14T15:22:55.361Z,33.00
2022-08-14T15:25:19.031Z,32.70
2022-08-14T15:27:44.361Z,32.90
2022-08-14T15:30:11.145Z,32.80
2022-08-14T15:32:34.910Z,32.70
2022-08-14T15:35:02.554Z,32.70
2022-08-14T15:37:26.235Z,32.60
2022-08-14T15:39:59.036Z,33.00
2022-08-14T15:42:25.294Z,33.10
2022-08-14T15:44:58.137Z,32.80
2022-08-14T15:47:28.152Z,33.00
2022-08-14T15:49:54.391Z,33.30
2022-08-14T15:52:32.483Z,33.20
2022-08-14T15:54:59.806Z,33.30
2022-08-14T15:57:23.371Z,33.20
2022-08-14T16:00:04.813Z,33.00
2022-08-14T16:02:35.247Z,33.10
2022-08-14T16:04:58.875Z,32.90
2022-08-14T16:07:30.370Z,33.00
2022-08-14T16:10:27.268Z,32.80
2022-08-14T16:12:50.064Z,32.70
2022-08-14T16:15:13.767Z,32.50
2022-08-14T16:17:44.266Z,32.60
2022-08-14T16:20:10.518Z,32.70
2022-08-14T16:23:10.409Z,32.70
2022-08-14T16:25:21.296Z,32.70
2022-08-14T16:28:00.316Z,32.80
2022-08-14T16:30:27.528Z,32.70
2022-08-14T16:32:55.499Z,32.60
2022-08-14T16:35:19.978Z,32.40
2022-08-14T16:37:45.281Z,32.50
2022-08-14T16:40:12.706Z,32.50
2022-08-14T16:43:12.797Z,32.40
2022-08-14T16:45:27.720Z,32.30
2022-08-14T16:47:51.313Z,32.40
2022-08-14T16:50:40.787Z,32.40
2022-08-14T16:53:02.112Z,32.30
2022-08-14T16:55:31.295Z,32.30
2022-08-14T16:57:59.418Z,32.30
2022-08-14T17:00:32.989Z,32.20
2022-08-14T17:03:04.044Z,32.20
2022-08-14T17:05:30.971Z,32.20
2022-08-14T17:08:41.480Z,32.20
2022-08-14T17:11:09.946Z,32.30
2022-08-14T17:13:59.818Z,32.30
2022-08-14T17:16:23.967Z,32.30
2022-08-14T17:18:55.487Z,32.30
2022-08-14T17:21:31.808Z,32.40
2022-08-14T17:24:00.712Z,32.40
2022-08-14T17:26:38.105Z,32.40
2022-08-14T17:29:11.306Z,32.40
2022-08-14T17:31:58.556Z,32.50
2022-08-14T17:34:21.088Z,32.50
2022-08-14T17:36:50.630Z,32.40
2022-08-14T17:39:19.252Z,32.40
2022-08-14T17:42:01.997Z,32.30
2022-08-14T17:44:33.352Z,32.30
2022-08-14T17:47:01.799Z,32.40
2022-08-14T17:49:28.319Z,32.20
2022-08-14T17:52:03.700Z,32.20
2022-08-14T17:54:36.555Z,32.10
2022-08-14T17:57:13.082Z,32.10
2022-08-14T17:59:39.726Z,32.10
2022-08-14T18:02:07.318Z,32.20
2022-08-14T18:04:33.818Z,32.10
2022-08-14T18:07:16.786Z,32.00
2022-08-14T18:09:56.780Z,32.00
2022-08-14T18:12:31.818Z,32.00
2022-08-14T18:14:56.088Z,31.90
2022-08-14T18:17:23.581Z,31.90
2022-08-14T18:19:48.289Z,31.80
2022-08-14T18:22:24.054Z,31.70
2022-08-14T18:24:56.868Z,31.80
2022-08-14T18:27:25.265Z,31.70
2022-08-14T18:29:55.931Z,31.70
2022-08-14T18:32:47.450Z,31.70
2022-08-14T18:35:14.722Z,31.50
2022-08-14T18:37:39.867Z,31.50
2022-08-14T18:40:35.199Z,31.50
2022-08-14T18:43:03.516Z,31.50
2022-08-14T18:45:30.308Z,31.40
2022-08-14T18:48:15.937Z,31.30
2022-08-14T18:50:52.787Z,31.20
2022-08-14T18:53:17.250Z,31.10
2022-08-14T18:55:55.688Z,31.00
2022-08-14T18:58:31.048Z,31.10
2022-08-14T19:01:00.044Z,31.00
2022-08-14T19:03:57.836Z,31.00
2022-08-14T19:06:37.447Z,30.70
2022-08-14T19:09:02.734Z,30.70
2022-08-14T19:11:50.372Z,30.80
2022-08-14T19:14:18.561Z,30.80
2022-08-14T19:16:53.580Z,30.60
2022-08-14T19:19:17.918Z,30.70
2022-08-14T19:21:55.555Z,30.60
2022-08-14T19:24:27.876Z,30.40
2022-08-14T19:27:19.279Z,30.30
2022-08-14T19:29:47.785Z,30.20
2022-08-14T19:32:40.763Z,30.30
2022-08-14T19:35:16.938Z,30.10
2022-08-14T19:37:48.433Z,30.10
2022-08-14T19:40:29.712Z,30.10
2022-08-14T19:42:58.300Z,30.00
2022-08-14T19:45:25.575Z,30.10
2022-08-14T19:47:49.847Z,29.80
2022-08-14T19:50:31.108Z,29.70
2022-08-14T19:53:11.060Z,29.70
2022-08-14T19:55:37.261Z,29.60
2022-08-14T19:58:02.239Z,29.40
2022-08-14T20:00:30.047Z,29.30
2022-08-14T20:03:09.949Z,29.20
2022-08-14T20:05:39.942Z,29.20
2022-08-14T20:09:05.875Z,29.10
2022-08-14T20:11:06.714Z,29.10
2022-08-14T20:13:39.384Z,28.90
2022-08-14T20:16:20.950Z,29.00
2022-08-14T20:18:57.403Z,29.00
2022-08-14T20:21:34.415Z,29.00
2022-08-14T20:24:30.809Z,28.90
2022-08-14T20:27:34.022Z,28.90
2022-08-14T20:30:33.905Z,28.90
2022-08-14T20:33:01.429Z,28.80
2022-08-14T20:35:35.429Z,28.80
2022-08-14T20:38:29.133Z,28.80
2022-08-14T20:40:52.292Z,28.80
2022-08-14T20:43:35.458Z,28.70
2022-08-14T20:46:00.793Z,28.40
2022-08-14T20:48:52.260Z,28.60
2022-08-14T20:51:24.189Z,28.60
2022-08-14T20:53:58.083Z,28.80
2022-08-14T20:56:28.572Z,28.80
2022-08-14T20:58:54.169Z,28.80
2022-08-14T21:01:38.537Z,28.60
2022-08-14T21:04:05.058Z,28.70
2022-08-14T21:06:49.345Z,28.70
2022-08-14T21:10:05.660Z,28.60
2022-08-14T21:12:33.454Z,28.50
2022-08-14T21:14:54.639Z,28.50
2022-08-14T21:17:23.469Z,28.40
2022-08-14T21:19:50.562Z,28.40
2022-08-14T21:22:14.305Z,28.40
2022-08-14T21:24:39.192Z,28.40
2022-08-14T21:27:21.797Z,28.30
2022-08-14T21:29:54.394Z,28.40
2022-08-14T21:32:33.628Z,28.40
2022-08-14T21:34:59.111Z,28.40
2022-08-14T21:37:23.649Z,28.30
2022-08-14T21:39:47.419Z,28.30
2022-08-14T21:42:22.045Z,28.10
2022-08-14T21:44:53.434Z,28.20
2022-08-14T21:47:17.660Z,28.20
2022-08-14T21:49:48.223Z,28.30
2022-08-14T21:52:52.138Z,28.20
2022-08-14T21:55:09.709Z,28.30
2022-08-14T21:58:03.723Z,28.10
2022-08-14T22:00:35.217Z,28.20
2022-08-14T22:03:01.099Z,28.00
2022-08-14T22:05:25.590Z,27.90
2022-08-14T22:07:54.460Z,27.90
2022-08-14T22:10:23.005Z,28.00
2022-08-14T22:13:00.672Z,27.90
2022-08-14T22:15:25.572Z,27.80
2022-08-14T22:17:52.238Z,27.80
2022-08-14T22:20:20.508Z,27.70
2022-08-14T22:22:45.796Z,27.70
2022-08-14T22:25:16.124Z,27.50
2022-08-14T22:27:55.421Z,27.50
2022-08-14T22:30:20.111Z,27.40
2022-08-14T22:32:56.752Z,27.40
2022-08-14T22:35:23.638Z,27.40
2022-08-14T22:37:47.353Z,27.30
2022-08-14T22:40:55.304Z,27.30
2022-08-14T22:43:19.692Z,27.20
2022-08-14T22:45:55.191Z,27.10
2022-08-14T22:48:18.933Z,27.10
2022-08-14T22:50:53.208Z,27.10
2022-08-14T22:53:17.537Z,27.10
2022-08-14T22:55:44.732Z,27.00
2022-08-14T22:58:10.958Z,26.80
2022-08-14T23:00:43.897Z,26.80
2022-08-14T23:03:17.522Z,26.70
2022-08-14T23:05:52.521Z,26.70
2022-08-14T23:08:59.070Z,26.50
2022-08-14T23:11:04.102Z,26.50
2022-08-14T23:13:30.582Z,26.60
2022-08-14T23:15:55.019Z,26.50
2022-08-14T23:18:18.532Z,26.50
2022-08-14T23:20:46.089Z,26.60
2022-08-14T23:23:22.925Z,26.40
2022-08-14T23:26:00.118Z,26.40
2022-08-14T23:28:56.919Z,26.30
2022-08-14T23:31:34.500Z,26.30
2022-08-14T23:33:59.130Z,26.20
2022-08-14T23:36:31.840Z,26.30
2022-08-14T23:38:56.514Z,26.20
2022-08-14T23:41:20.117Z,26.20
2022-08-14T23:43:49.056Z,26.10
2022-08-14T23:46:15.028Z,26.10
2022-08-14T23:48:40.439Z,25.90
2022-08-14T23:51:11.952Z,25.90
2022-08-14T23:53:48.259Z,26.20
2022-08-14T23:56:30.408Z,26.10
2022-08-14T23:58:57.625Z,26.00
